createdAt,value
2022-12-15T00:02:19.542Z,7.30
2022-12-15T00:05:05.319Z,7.07
2022-12-15T00:07:50.647Z,7.40
2022-12-15T00:10:36.115Z,8.07
2022-12-15T00:13:21.363Z,6.77
2022-12-15T00:16:06.849Z,6.83
2022-12-15T00:18:53.158Z,6.40
2022-12-15T00:21:38.927Z,7.47
2022-12-15T00:24:24.822Z,7.37
2022-12-15T00:27:10.178Z,6.47
2022-12-15T00:29:55.419Z,6.07
2022-12-15T00:32:40.515Z,5.93
2022-12-15T00:35:27.506Z,6.40
2022-12-15T00:38:12.845Z,5.70
2022-12-15T00:40:40.684Z,5.53
2022-12-15T00:43:11.945Z,7.20
2022-12-15T00:45:57.735Z,5.97
2022-12-15T00:48:27.770Z,5.50
2022-12-15T00:50:55.788Z,6.97
2022-12-15T00:53:42.375Z,5.53
2022-12-15T00:56:28.282Z,6.20
2022-12-15T00:59:14.140Z,6.20
2022-12-15T01:01:59.629Z,6.30
2022-12-15T01:04:44.893Z,6.73
2022-12-15T01:07:31.521Z,6.33
2022-12-15T01:10:16.933Z,5.53
2022-12-15T01:13:02.679Z,5.73
2022-12-15T01:15:48.058Z,6.60
2022-12-15T01:18:33.174Z,6.00
2022-12-15T01:21:02.328Z,6.50
2022-12-15T01:23:32.140Z,6.13
2022-12-15T01:26:00.033Z,6.77
2022-12-15T01:28:27.846Z,6.40
2022-12-15T01:30:55.878Z,6.43
2022-12-15T01:33:24.034Z,6.07
2022-12-15T01:35:58.984Z,7.10
2022-12-15T01:38:27.067Z,7.30
2022-12-15T01:40:57.691Z,8.23
2022-12-15T01:43:26.739Z,8.63
2022-12-15T01:46:02.438Z,8.83
2022-12-15T01:48:35.820Z,10.90
2022-12-15T01:51:10.243Z,9.87
2022-12-15T01:53:40.963Z,10.27
2022-12-15T01:56:10.977Z,10.03
2022-12-15T01:58:39.552Z,11.33
2022-12-15T02:01:07.528Z,11.80
2022-12-15T02:03:35.903Z,14.73
2022-12-15T02:06:04.203Z,12.70
2022-12-15T02:08:32.064Z,12.50
2022-12-15T02:11:12.570Z,11.67
2022-12-15T02:13:49.801Z,12.70
2022-12-15T02:16:21.118Z,13.97
2022-12-15T02:18:54.853Z,12.77
2022-12-15T02:21:28.571Z,13.90
2022-12-15T02:24:29.715Z,15.10
2022-12-15T02:27:13.606Z,16.03
2022-12-15T02:30:21.044Z,18.27
2022-12-15T02:32:57.628Z,15.07
2022-12-15T02:35:29.298Z,13.63
2022-12-15T02:37:56.996Z,14.03
2022-12-15T02:40:24.732Z,14.37
2022-12-15T02:42:53.647Z,13.20
2022-12-15T02:45:31.121Z,13.20
2022-12-15T02:48:07.612Z,14.90
2022-12-15T02:50:46.947Z,12.43
2022-12-15T02:53:27.589Z,12.47
2022-12-15T02:56:00.965Z,12.57
2022-12-15T02:58:32.293Z,15.23
2022-12-15T03:01:04.237Z,12.80
2022-12-15T03:03:36.531Z,13.47
2022-12-15T03:06:05.765Z,13.27
2022-12-15T03:08:33.486Z,13.90
2022-12-15T03:11:01.350Z,14.63
2022-12-15T03:13:29.398Z,13.47
2022-12-15T03:15:58.583Z,15.23
2022-12-15T03:18:26.310Z,15.93
2022-12-15T03:20:55.346Z,14.67
2022-12-15T03:23:23.115Z,13.30
2022-12-15T03:25:51.022Z,14.23
2022-12-15T03:28:18.976Z,13.53
2022-12-15T03:30:50.579Z,12.03
2022-12-15T03:33:18.737Z,12.33
2022-12-15T03:35:46.367Z,9.90
2022-12-15T03:38:15.365Z,9.40
2022-12-15T03:40:43.475Z,9.23
2022-12-15T03:43:11.212Z,7.93
2022-12-15T03:45:38.911Z,7.77
2022-12-15T03:48:06.940Z,7.70
2022-12-15T03:50:34.649Z,7.97
2022-12-15T03:53:07.061Z,8.33
2022-12-15T03:55:36.202Z,8.57
2022-12-15T03:58:03.904Z,9.17
2022-12-15T04:00:31.589Z,7.63
2022-12-15T04:02:59.426Z,6.80
2022-12-15T04:05:28.737Z,7.07
2022-12-15T04:07:57.311Z,7.83
2022-12-15T04:10:31.750Z,8.03
2022-12-15T04:13:04.688Z,8.27
2022-12-15T04:15:32.575Z,7.67
2022-12-15T04:18:02.321Z,7.43
2022-12-15T04:20:30.372Z,7.40
2022-12-15T04:22:58.425Z,7.20
2022-12-15T04:25:44.747Z,8.00
2022-12-15T04:28:32.223Z,7.60
2022-12-15T04:31:20.244Z,7.50
2022-12-15T04:34:07.791Z,7.43
2022-12-15T04:36:53.695Z,6.83
2022-12-15T04:39:39.079Z,7.93
2022-12-15T04:42:24.303Z,6.70
2022-12-15T04:45:16.961Z,6.87
2022-12-15T04:48:05.802Z,7.10
2022-12-15T04:50:51.174Z,6.07
2022-12-15T04:53:37.495Z,6.03
2022-12-15T04:56:23.238Z,6.20
2022-12-15T04:59:08.593Z,6.13
2022-12-15T05:01:55.174Z,7.37
2022-12-15T05:04:40.406Z,6.63
2022-12-15T05:07:25.794Z,6.33
2022-12-15T05:10:14.822Z,6.77
2022-12-15T05:13:00.411Z,6.10
2022-12-15T05:15:45.791Z,6.47
2022-12-15T05:18:32.451Z,6.67
2022-12-15T05:21:17.794Z,7.03
2022-12-15T05:24:03.098Z,8.50
2022-12-15T05:26:52.740Z,8.17
2022-12-15T05:29:38.278Z,7.10
2022-12-15T05:32:06.144Z,6.90
2022-12-15T05:34:36.575Z,6.43
2022-12-15T05:37:06.015Z,7.00
2022-12-15T05:39:33.764Z,5.27
2022-12-15T05:42:01.430Z,6.50
2022-12-15T05:44:29.674Z,7.27
2022-12-15T05:46:57.521Z,9.00
2022-12-15T05:49:25.234Z,7.07
2022-12-15T05:51:54.237Z,7.57
2022-12-15T05:54:22.158Z,6.93
2022-12-15T05:56:50.532Z,6.80
2022-12-15T05:59:19.299Z,6.70
2022-12-15T06:01:47.146Z,6.03
2022-12-15T06:04:15.393Z,6.10
2022-12-15T06:06:43.191Z,6.53
2022-12-15T06:09:12.331Z,6.80
2022-12-15T06:11:40.039Z,7.20
2022-12-15T06:14:07.957Z,6.40
2022-12-15T06:16:40.997Z,5.80
2022-12-15T06:19:11.982Z,6.37
2022-12-15T06:21:39.779Z,5.37
2022-12-15T06:24:08.761Z,5.20
2022-12-15T06:26:39.033Z,7.93
2022-12-15T06:29:08.790Z,5.90
2022-12-15T06:31:37.334Z,7.30
2022-12-15T06:34:06.669Z,7.23
2022-12-15T06:36:34.482Z,6.50
2022-12-15T06:39:04.211Z,6.10
2022-12-15T06:41:32.418Z,7.90
2022-12-15T06:44:01.874Z,5.00
2022-12-15T06:46:31.396Z,5.67
2022-12-15T06:48:59.772Z,5.10
2022-12-15T06:51:28.146Z,5.83
2022-12-15T06:53:56.359Z,5.40
2022-12-15T06:56:32.658Z,6.50
2022-12-15T06:59:04.302Z,6.90
2022-12-15T07:01:32.594Z,8.03
2022-12-15T07:04:01.710Z,8.37
2022-12-15T07:06:36.222Z,6.10
2022-12-15T07:09:04.747Z,7.43
2022-12-15T07:11:32.962Z,6.03
2022-12-15T07:14:01.953Z,8.03
2022-12-15T07:16:29.687Z,7.10
2022-12-15T07:18:57.456Z,7.07
2022-12-15T07:21:25.170Z,7.47
2022-12-15T07:23:55.413Z,7.03
2022-12-15T07:26:24.559Z,7.10
2022-12-15T07:28:52.900Z,8.83
2022-12-15T07:31:22.377Z,6.07
2022-12-15T07:33:52.061Z,8.20
2022-12-15T07:36:20.050Z,6.27
2022-12-15T07:38:50.219Z,8.47
2022-12-15T07:41:18.976Z,7.70
2022-12-15T07:43:47.620Z,8.47
2022-12-15T07:46:15.685Z,7.60
2022-12-15T07:48:50.107Z,6.70
2022-12-15T07:51:20.608Z,6.83
2022-12-15T07:53:49.485Z,6.00
2022-12-15T07:56:17.626Z,6.73
2022-12-15T07:58:45.389Z,6.40
2022-12-15T08:01:14.594Z,5.67
2022-12-15T08:03:45.153Z,6.77
2022-12-15T08:06:14.584Z,6.73
2022-12-15T08:08:42.867Z,6.00
2022-12-15T08:11:13.377Z,6.47
2022-12-15T08:16:30.141Z,7.83
2022-12-15T08:18:59.310Z,6.93
2022-12-15T08:21:26.996Z,7.00
2022-12-15T08:23:55.064Z,6.80
2022-12-15T08:26:28.454Z,6.47
2022-12-15T08:29:11.759Z,8.33
2022-12-15T08:31:45.558Z,6.73
2022-12-15T08:34:14.707Z,7.83
2022-12-15T08:36:42.658Z,6.40
2022-12-15T08:39:10.352Z,6.13
2022-12-15T08:41:38.044Z,7.00
2022-12-15T08:44:05.938Z,6.67
2022-12-15T08:46:35.138Z,5.60
2022-12-15T08:49:03.894Z,6.80
2022-12-15T08:51:34.517Z,6.97
2022-12-15T08:54:02.661Z,5.63
2022-12-15T08:56:30.946Z,5.60
2022-12-15T08:58:59.827Z,7.27
2022-12-15T09:01:29.122Z,5.80
2022-12-15T09:03:57.407Z,6.47
2022-12-15T09:06:27.035Z,7.00
2022-12-15T09:08:57.532Z,6.57
2022-12-15T09:11:25.743Z,7.27
2022-12-15T09:13:53.504Z,6.90
2022-12-15T09:16:22.327Z,7.97
2022-12-15T09:18:52.179Z,6.83
2022-12-15T09:21:22.332Z,6.90
2022-12-15T09:23:51.595Z,9.37
2022-12-15T09:26:22.459Z,10.60
2022-12-15T09:28:50.890Z,11.83
2022-12-15T09:31:20.824Z,9.07
2022-12-15T09:33:49.410Z,10.97
2022-12-15T09:36:17.079Z,11.43
2022-12-15T09:38:45.034Z,9.83
2022-12-15T09:41:21.643Z,11.70
2022-12-15T09:43:55.342Z,12.50
2022-12-15T09:46:29.142Z,11.27
2022-12-15T09:48:59.160Z,10.37
2022-12-15T09:51:32.125Z,11.50
2022-12-15T09:54:00.387Z,9.23
2022-12-15T09:56:36.004Z,9.13
2022-12-15T09:59:07.017Z,8.13
2022-12-15T10:01:39.556Z,7.07
2022-12-15T10:04:10.351Z,7.23
2022-12-15T10:06:42.320Z,7.30
2022-12-15T10:09:16.573Z,7.23
2022-12-15T10:11:51.583Z,7.83
2022-12-15T10:14:27.072Z,5.83
2022-12-15T10:17:02.394Z,7.07
2022-12-15T10:19:37.912Z,6.40
2022-12-15T10:22:05.727Z,7.60
2022-12-15T10:27:53.275Z,6.33
2022-12-15T10:30:22.223Z,7.43
2022-12-15T10:32:52.574Z,7.10
2022-12-15T10:35:23.994Z,6.10
2022-12-15T10:37:52.153Z,6.30
2022-12-15T10:40:21.785Z,6.77
2022-12-15T10:42:51.850Z,6.50
2022-12-15T10:45:33.341Z,7.43
2022-12-15T10:48:02.547Z,6.03
2022-12-15T10:50:30.743Z,5.57
2022-12-15T10:52:58.436Z,5.63
2022-12-15T10:55:38.115Z,5.93
2022-12-15T10:58:21.690Z,8.67
2022-12-15T11:00:50.727Z,6.20
2022-12-15T11:03:23.794Z,6.23
2022-12-15T11:05:55.804Z,7.70
2022-12-15T11:08:24.691Z,7.47
2022-12-15T11:11:12.123Z,7.73
2022-12-15T11:13:42.051Z,8.00
2022-12-15T11:16:17.014Z,8.23
2022-12-15T11:18:48.861Z,8.37
2022-12-15T11:21:22.792Z,7.93
2022-12-15T11:23:56.252Z,9.60
2022-12-15T11:26:31.300Z,8.93
2022-12-15T11:29:02.761Z,9.10
2022-12-15T11:31:35.111Z,7.90
2022-12-15T11:34:02.900Z,9.53
2022-12-15T11:36:57.420Z,9.23
2022-12-15T11:39:35.873Z,9.87
2022-12-15T11:42:07.822Z,8.67
2022-12-15T11:44:41.768Z,9.83
2022-12-15T11:47:16.899Z,9.57
2022-12-15T11:49:55.033Z,9.27
2022-12-15T11:52:35.828Z,10.77
2022-12-15T11:55:11.720Z,9.20
2022-12-15T11:57:55.404Z,7.93
2022-12-15T12:00:25.069Z,8.33
2022-12-15T12:03:01.314Z,8.33
2022-12-15T12:05:39.000Z,8.23
2022-12-15T12:08:20.522Z,9.50
2022-12-15T12:10:52.787Z,10.07
2022-12-15T12:13:25.230Z,8.53
2022-12-15T12:15:59.226Z,7.40
2022-12-15T12:18:30.081Z,8.73
2022-12-15T12:21:02.352Z,8.57
2022-12-15T12:23:35.326Z,9.27
2022-12-15T12:26:07.131Z,8.77
2022-12-15T12:28:41.405Z,9.60
2022-12-15T12:31:20.211Z,9.97
2022-12-15T12:33:52.491Z,8.67
2022-12-15T12:36:20.215Z,8.93
2022-12-15T12:38:50.803Z,7.63
2022-12-15T12:41:27.060Z,9.67
2022-12-15T12:43:58.136Z,9.20
2022-12-15T12:46:30.791Z,9.13
2022-12-15T12:49:01.818Z,9.20
2022-12-15T12:51:31.128Z,8.37
2022-12-15T12:54:39.205Z,9.20
2022-12-15T12:57:31.425Z,8.40
2022-12-15T13:00:00.110Z,11.60
2022-12-15T13:02:47.785Z,10.80
2022-12-15T13:05:27.930Z,9.17
2022-12-15T13:07:56.954Z,9.37
2022-12-15T13:10:25.894Z,11.20
2022-12-15T13:15:44.313Z,8.73
2022-12-15T13:18:17.641Z,9.50
2022-12-15T13:20:48.810Z,8.90
2022-12-15T13:23:36.490Z,10.07
2022-12-15T13:26:14.847Z,9.90
2022-12-15T13:28:45.627Z,9.67
2022-12-15T13:31:32.134Z,9.43
2022-12-15T13:34:20.277Z,9.37
2022-12-15T13:36:54.761Z,10.23
2022-12-15T13:39:54.798Z,8.83
2022-12-15T13:42:48.264Z,8.43
2022-12-15T13:45:45.386Z,7.70
2022-12-15T13:48:28.116Z,8.77
2022-12-15T13:51:03.558Z,8.27
2022-12-15T13:53:35.606Z,6.33
2022-12-15T13:56:19.686Z,6.57
2022-12-15T13:58:54.256Z,8.13
2022-12-15T14:01:27.263Z,6.17
2022-12-15T14:04:05.696Z,6.90
2022-12-15T14:06:39.370Z,7.40
2022-12-15T14:09:07.884Z,7.33
2022-12-15T14:11:52.726Z,7.30
2022-12-15T14:14:23.967Z,7.97
2022-12-15T14:16:58.474Z,7.60
2022-12-15T14:19:27.015Z,7.23
2022-12-15T14:21:57.521Z,7.57
2022-12-15T14:24:38.619Z,7.93
2022-12-15T14:27:07.131Z,7.87
2022-12-15T14:29:34.850Z,7.97
2022-12-15T14:32:03.343Z,7.67
2022-12-15T14:34:33.519Z,9.37
2022-12-15T14:37:05.225Z,10.50
2022-12-15T14:39:36.143Z,9.27
2022-12-15T14:42:04.281Z,10.10
2022-12-15T14:44:38.236Z,9.10
2022-12-15T14:47:08.571Z,9.67
2022-12-15T14:49:40.123Z,10.27
2022-12-15T14:52:21.551Z,9.60
2022-12-15T14:54:53.505Z,9.13
2022-12-15T14:57:27.044Z,10.57
2022-12-15T14:59:54.924Z,8.73
2022-12-15T15:02:26.810Z,10.70
2022-12-15T15:03:07.367Z,9.07
2022-12-15T15:05:02.964Z,9.77
2022-12-15T15:07:33.755Z,10.73
2022-12-15T15:10:02.328Z,10.50
2022-12-15T15:12:43.175Z,10.50
2022-12-15T15:15:16.759Z,10.30
2022-12-15T15:17:46.587Z,10.53
2022-12-15T15:20:19.168Z,9.87
2022-12-15T15:22:52.571Z,9.67
2022-12-15T15:25:31.571Z,9.37
2022-12-15T15:28:15.112Z,10.27
2022-12-15T15:30:44.958Z,9.23
2022-12-15T15:33:13.674Z,9.17
2022-12-15T15:35:42.503Z,9.40
2022-12-15T15:38:18.955Z,10.63
2022-12-15T15:40:54.725Z,10.67
2022-12-15T15:43:22.877Z,11.97
2022-12-15T15:45:52.284Z,9.97
2022-12-15T15:48:25.234Z,10.40
2022-12-15T15:50:53.321Z,10.67
2022-12-15T15:53:24.513Z,11.57
2022-12-15T15:55:54.665Z,12.27
2022-12-15T15:58:22.721Z,12.00
2022-12-15T16:00:51.655Z,11.33
2022-12-15T16:03:19.440Z,11.50
2022-12-15T16:05:47.361Z,11.53
2022-12-15T16:08:17.471Z,11.27
2022-12-15T16:10:48.357Z,11.07
2022-12-15T16:13:20.770Z,11.10
2022-12-15T16:15:51.799Z,11.20
2022-12-15T16:18:19.487Z,10.17
2022-12-15T16:20:50.335Z,10.50
2022-12-15T16:23:20.841Z,11.17
2022-12-15T16:25:53.871Z,11.13
2022-12-15T16:28:23.141Z,11.23
2022-12-15T16:30:51.432Z,11.40
2022-12-15T16:33:19.743Z,10.97
2022-12-15T16:35:48.558Z,10.27
2022-12-15T16:38:19.402Z,10.73
2022-12-15T16:40:47.121Z,11.00
2022-12-15T16:43:18.633Z,10.77
2022-12-15T16:45:47.608Z,10.67
2022-12-15T16:48:16.072Z,12.23
2022-12-15T16:50:45.853Z,12.60
2022-12-15T16:53:16.450Z,11.90
2022-12-15T16:55:44.585Z,11.70
2022-12-15T16:58:15.658Z,12.00
2022-12-15T17:00:45.930Z,12.13
2022-12-15T17:03:14.679Z,11.10
2022-12-15T17:05:43.812Z,12.00
2022-12-15T17:08:17.121Z,11.47
2022-12-15T17:10:45.323Z,12.07
2022-12-15T17:13:20.457Z,11.30
2022-12-15T17:15:49.525Z,13.03
2022-12-15T17:18:17.381Z,12.93
2022-12-15T17:20:45.113Z,11.90
2022-12-15T17:23:16.592Z,11.37
2022-12-15T17:26:19.538Z,10.80
2022-12-15T17:28:36.621Z,11.03
2022-12-15T17:31:06.001Z,11.73
2022-12-15T17:33:35.829Z,10.00
2022-12-15T17:36:09.398Z,9.63
2022-12-15T17:38:37.075Z,10.50
2022-12-15T17:41:04.782Z,10.07
2022-12-15T17:43:35.892Z,9.37
2022-12-15T17:46:05.593Z,9.53
2022-12-15T17:48:33.779Z,9.07
2022-12-15T17:51:01.579Z,8.87
2022-12-15T17:53:30.732Z,10.13
2022-12-15T17:55:58.655Z,8.17
2022-12-15T17:58:27.312Z,7.83
2022-12-15T18:00:57.194Z,8.60
2022-12-15T18:03:26.329Z,7.00
2022-12-15T18:05:54.787Z,6.90
2022-12-15T18:08:24.095Z,6.70
2022-12-15T18:10:53.705Z,6.77
2022-12-15T18:13:23.363Z,6.50
2022-12-15T18:15:51.866Z,6.40
2022-12-15T18:18:21.124Z,6.40
2022-12-15T18:20:50.870Z,5.97
2022-12-15T18:23:21.103Z,6.43
2022-12-15T18:25:48.945Z,5.70
2022-12-15T18:28:22.130Z,5.30
2022-12-15T18:30:50.976Z,5.03
2022-12-15T18:33:18.817Z,5.20
2022-12-15T18:35:47.890Z,5.10
2022-12-15T18:38:18.199Z,5.03
2022-12-15T18:40:47.308Z,5.07
2022-12-15T18:43:16.454Z,4.97
2022-12-15T18:45:44.616Z,4.57
2022-12-15T18:48:16.752Z,5.37
2022-12-15T18:50:44.553Z,4.43
2022-12-15T18:53:19.302Z,4.20
2022-12-15T18:55:48.018Z,4.70
2022-12-15T18:58:21.513Z,4.37
2022-12-15T19:00:49.978Z,4.30
2022-12-15T19:03:18.131Z,4.30
2022-12-15T19:05:46.265Z,4.37
2022-12-15T19:08:18.345Z,4.40
2022-12-15T19:10:50.900Z,4.93
2022-12-15T19:13:20.202Z,4.20
2022-12-15T19:15:47.992Z,4.70
2022-12-15T19:18:33.706Z,4.33
2022-12-15T19:21:20.896Z,4.30
2022-12-15T19:23:50.655Z,3.80
2022-12-15T19:26:18.329Z,4.10
2022-12-15T19:28:46.176Z,3.77
2022-12-15T19:31:13.867Z,3.80
2022-12-15T19:33:42.244Z,3.90
2022-12-15T19:36:15.483Z,3.83
2022-12-15T19:38:43.402Z,3.63
2022-12-15T19:41:14.396Z,4.20
2022-12-15T19:43:42.330Z,3.50
2022-12-15T19:46:13.257Z,3.70
2022-12-15T19:48:40.974Z,11.77
2022-12-15T19:51:12.705Z,7.90
2022-12-15T19:53:40.955Z,4.43
2022-12-15T19:56:10.843Z,3.53
2022-12-15T19:58:40.197Z,3.20
2022-12-15T20:01:14.542Z,3.03
2022-12-15T20:03:42.783Z,3.17
2022-12-15T20:06:15.849Z,5.33
2022-12-15T20:08:45.589Z,3.37
2022-12-15T20:11:18.610Z,3.77
2022-12-15T20:13:48.497Z,2.90
2022-12-15T20:16:18.834Z,2.80
2022-12-15T20:18:46.856Z,3.30
2022-12-15T20:21:19.215Z,2.77
2022-12-15T20:23:51.731Z,3.13
2022-12-15T20:26:19.878Z,2.80
2022-12-15T20:28:49.100Z,2.80
2022-12-15T20:31:18.466Z,2.63
2022-12-15T20:33:47.191Z,2.90
2022-12-15T20:36:16.030Z,3.57
2022-12-15T20:38:44.322Z,2.30
2022-12-15T20:41:17.483Z,2.50
2022-12-15T20:43:45.531Z,2.60
2022-12-15T20:46:17.015Z,2.50
2022-12-15T20:48:45.602Z,3.00
2022-12-15T20:51:16.357Z,3.10
2022-12-15T20:53:44.005Z,3.17
2022-12-15T20:56:11.716Z,2.63
2022-12-15T20:58:39.546Z,3.00
2022-12-15T21:01:18.855Z,2.77
2022-12-15T21:03:47.076Z,3.80
2022-12-15T21:06:14.852Z,2.53
2022-12-15T21:08:42.953Z,3.33
2022-12-15T21:11:15.393Z,3.57
2022-12-15T21:13:43.098Z,2.23
2022-12-15T21:19:22.640Z,3.20
2022-12-15T21:21:53.001Z,2.50
2022-12-15T21:24:25.395Z,3.20
2022-12-15T21:26:53.853Z,2.60
2022-12-15T21:29:24.423Z,3.30
2022-12-15T21:31:52.152Z,2.90
2022-12-15T21:34:21.212Z,3.63
2022-12-15T21:36:51.787Z,3.07
2022-12-15T21:39:24.038Z,3.40
2022-12-15T21:41:52.031Z,3.40
2022-12-15T21:44:19.735Z,3.50
2022-12-15T21:46:47.506Z,3.97
2022-12-15T21:49:15.232Z,3.83
2022-12-15T21:51:45.605Z,4.20
2022-12-15T21:54:18.118Z,4.10
2022-12-15T21:56:46.348Z,4.17
2022-12-15T21:59:15.460Z,4.13
2022-12-15T22:01:43.502Z,3.43
2022-12-15T22:04:17.530Z,4.07
2022-12-15T22:06:50.600Z,3.97
2022-12-15T22:09:18.999Z,4.20
2022-12-15T22:11:48.070Z,3.73
2022-12-15T22:14:17.973Z,3.40
2022-12-15T22:16:45.799Z,2.90
2022-12-15T22:19:13.903Z,3.63
2022-12-15T22:21:42.600Z,3.00
2022-12-15T22:24:11.872Z,2.70
2022-12-15T22:26:40.127Z,2.77
2022-12-15T22:29:13.318Z,3.30
2022-12-15T22:31:41.018Z,2.50
2022-12-15T22:34:13.607Z,3.00
2022-12-15T22:36:41.366Z,2.00
2022-12-15T22:39:11.020Z,1.90
2022-12-15T22:41:41.702Z,2.03
2022-12-15T22:44:16.908Z,1.90
2022-12-15T22:46:44.924Z,1.90
2022-12-15T22:49:15.081Z,1.93
2022-12-15T22:51:42.838Z,1.37
2022-12-15T22:54:18.862Z,1.40
2022-12-15T22:56:49.839Z,1.83
2022-12-15T22:59:22.119Z,1.50
2022-12-15T23:01:49.835Z,1.87
2022-12-15T23:04:17.611Z,1.50
2022-12-15T23:06:45.962Z,1.80
2022-12-15T23:09:13.615Z,2.27
2022-12-15T23:11:41.392Z,2.40
2022-12-15T23:14:13.421Z,1.50
2022-12-15T23:16:40.345Z,1.17
2022-12-15T23:19:08.854Z,2.27
2022-12-15T23:21:36.949Z,1.30
2022-12-15T23:24:04.949Z,1.63
2022-12-15T23:26:32.767Z,1.23
2022-12-15T23:29:00.410Z,1.50
2022-12-15T23:31:29.529Z,1.50
2022-12-15T23:33:57.280Z,1.43
2022-12-15T23:36:25.090Z,1.73
2022-12-15T23:38:55.045Z,1.77
2022-12-15T23:41:22.779Z,1.97
2022-12-15T23:43:50.497Z,1.27
2022-12-15T23:46:18.814Z,1.40
2022-12-15T23:48:48.051Z,1.43
2022-12-15T23:51:17.045Z,1.50
2022-12-15T23:53:46.099Z,1.57
2022-12-15T23:56:15.305Z,2.03
2022-12-15T23:58:44.029Z,1.47
